sensor_id;sensor_type;location;lat;lon;timestamp;P1;durP1;ratioP1;P2;durP2;ratioP2
32152;SDS011;18656;50.580;11.392;2022-10-31T00:01:14;15.98;;;7.90;;
32152;SDS011;18656;50.580;11.392;2022-10-31T00:03:42;13.75;;;7.60;;
32152;SDS011;18656;50.580;11.392;2022-10-31T00:06:09;18.38;;;7.43;;
32152;SDS011;18656;50.580;11.392;2022-10-31T00:08:36;14.60;;;7.43;;
32152;SDS011;18656;50.580;11.392;2022-10-31T00:11:07;14.90;;;7.28;;
32152;SDS011;18656;50.580;11.392;2022-10-31T00:13:34;18.88;;;8.50;;
32152;SDS011;18656;50.580;11.392;2022-10-31T00:16:02;24.23;;;8.13;;
32152;SDS011;18656;50.580;11.392;2022-10-31T00:18:29;14.40;;;7.65;;
32152;SDS011;18656;50.580;11.392;2022-10-31T00:21:02;15.77;;;7.95;;
32152;SDS011;18656;50.580;11.392;2022-10-31T00:23:30;15.63;;;7.95;;
32152;SDS011;18656;50.580;11.392;2022-10-31T00:26:00;14.45;;;7.50;;
32152;SDS011;18656;50.580;11.392;2022-10-31T00:28:28;16.60;;;8.10;;
32152;SDS011;18656;50.580;11.392;2022-10-31T00:31:03;20.20;;;8.10;;
32152;SDS011;18656;50.580;11.392;2022-10-31T00:33:32;16.48;;;8.23;;
32152;SDS011;18656;50.580;11.392;2022-10-31T00:35:59;14.40;;;8.02;;
32152;SDS011;18656;50.580;11.392;2022-10-31T00:38:27;16.70;;;7.88;;
32152;SDS011;18656;50.580;11.392;2022-10-31T00:40:54;10.88;;;6.70;;
32152;SDS011;18656;50.580;11.392;2022-10-31T00:43:21;19.77;;;7.90;;
32152;SDS011;18656;50.580;11.392;2022-10-31T00:45:48;13.48;;;8.32;;
32152;SDS011;18656;50.580;11.392;2022-10-31T00:48:15;16.48;;;7.55;;
32152;SDS011;18656;50.580;11.392;2022-10-31T00:50:43;17.55;;;9.20;;
32152;SDS011;18656;50.580;11.392;2022-10-31T00:53:10;14.23;;;7.75;;
32152;SDS011;18656;50.580;11.392;2022-10-31T00:55:37;15.48;;;8.18;;
32152;SDS011;18656;50.580;11.392;2022-10-31T00:58:04;12.82;;;7.07;;
32152;SDS011;18656;50.580;11.392;2022-10-31T01:00:32;13.68;;;7.15;;
32152;SDS011;18656;50.580;11.392;2022-10-31T01:02:59;20.38;;;7.50;;
32152;SDS011;18656;50.580;11.392;2022-10-31T01:05:27;12.35;;;6.35;;
32152;SDS011;18656;50.580;11.392;2022-10-31T01:07:54;10.75;;;6.50;;
32152;SDS011;18656;50.580;11.392;2022-10-31T01:10:21;17.73;;;7.90;;
32152;SDS011;18656;50.580;11.392;2022-10-31T01:12:49;15.15;;;7.40;;
32152;SDS011;18656;50.580;11.392;2022-10-31T01:15:18;14.05;;;7.30;;
32152;SDS011;18656;50.580;11.392;2022-10-31T01:17:46;9.93;;;6.95;;
32152;SDS011;18656;50.580;11.392;2022-10-31T01:20:14;16.15;;;7.43;;
32152;SDS011;18656;50.580;11.392;2022-10-31T01:22:41;9.88;;;6.50;;
32152;SDS011;18656;50.580;11.392;2022-10-31T01:25:08;12.90;;;6.63;;
32152;SDS011;18656;50.580;11.392;2022-10-31T01:27:36;10.73;;;6.88;;
32152;SDS011;18656;50.580;11.392;2022-10-31T01:30:04;11.73;;;6.47;;
32152;SDS011;18656;50.580;11.392;2022-10-31T01:32:31;17.23;;;6.40;;
32152;SDS011;18656;50.580;11.392;2022-10-31T01:34:58;11.80;;;7.40;;
32152;SDS011;18656;50.580;11.392;2022-10-31T01:37:26;14.05;;;7.15;;
32152;SDS011;18656;50.580;11.392;2022-10-31T01:39:53;11.05;;;5.93;;
32152;SDS011;18656;50.580;11.392;2022-10-31T01:42:21;18.30;;;6.97;;
32152;SDS011;18656;50.580;11.392;2022-10-31T01:47:20;18.40;;;8.98;;
32152;SDS011;18656;50.580;11.392;2022-10-31T01:49:49;13.60;;;7.43;;
32152;SDS011;18656;50.580;11.392;2022-10-31T01:54:45;13.05;;;7.00;;
32152;SDS011;18656;50.580;11.392;2022-10-31T01:57:16;14.75;;;7.03;;
32152;SDS011;18656;50.580;11.392;2022-10-31T01:59:46;11.70;;;6.88;;
32152;SDS011;18656;50.580;11.392;2022-10-31T02:02:15;14.98;;;6.90;;
32152;SDS011;18656;50.580;11.392;2022-10-31T02:04:44;18.35;;;6.78;;
32152;SDS011;18656;50.580;11.392;2022-10-31T02:07:16;11.15;;;7.60;;
32152;SDS011;18656;50.580;11.392;2022-10-31T02:09:45;23.08;;;7.78;;
32152;SDS011;18656;50.580;11.392;2022-10-31T02:12:14;9.52;;;6.20;;
32152;SDS011;18656;50.580;11.392;2022-10-31T02:14:42;12.48;;;7.28;;
32152;SDS011;18656;50.580;11.392;2022-10-31T02:17:09;17.48;;;7.30;;
32152;SDS011;18656;50.580;11.392;2022-10-31T02:19:51;14.90;;;7.32;;
32152;SDS011;18656;50.580;11.392;2022-10-31T02:30:04;12.70;;;6.70;;
32152;SDS011;18656;50.580;11.392;2022-10-31T02:40:27;16.55;;;6.53;;
32152;SDS011;18656;50.580;11.392;2022-10-31T02:45:29;12.73;;;6.47;;
32152;SDS011;18656;50.580;11.392;2022-10-31T02:47:58;10.00;;;5.73;;
32152;SDS011;18656;50.580;11.392;2022-10-31T02:50:34;9.88;;;5.65;;
32152;SDS011;18656;50.580;11.392;2022-10-31T02:53:03;11.02;;;6.07;;
32152;SDS011;18656;50.580;11.392;2022-10-31T02:57:59;11.45;;;5.93;;
32152;SDS011;18656;50.580;11.392;2022-10-31T03:00:29;12.48;;;5.95;;
32152;SDS011;18656;50.580;11.392;2022-10-31T03:10:52;15.60;;;6.32;;
32152;SDS011;18656;50.580;11.392;2022-10-31T03:13:31;10.00;;;6.03;;
32152;SDS011;18656;50.580;11.392;2022-10-31T03:16:10;12.63;;;6.07;;
32152;SDS011;18656;50.580;11.392;2022-10-31T03:18:43;12.90;;;5.97;;
32152;SDS011;18656;50.580;11.392;2022-10-31T03:21:16;15.02;;;6.93;;
32152;SDS011;18656;50.580;11.392;2022-10-31T03:23:46;13.98;;;6.35;;
32152;SDS011;18656;50.580;11.392;2022-10-31T03:26:15;19.40;;;6.53;;
32152;SDS011;18656;50.580;11.392;2022-10-31T03:29:04;18.23;;;6.72;;
32152;SDS011;18656;50.580;11.392;2022-10-31T03:31:32;20.35;;;6.85;;
32152;SDS011;18656;50.580;11.392;2022-10-31T03:34:00;15.60;;;6.50;;
32152;SDS011;18656;50.580;11.392;2022-10-31T03:36:29;10.38;;;6.30;;
32152;SDS011;18656;50.580;11.392;2022-10-31T03:38:58;7.47;;;5.63;;
32152;SDS011;18656;50.580;11.392;2022-10-31T03:41:31;15.93;;;6.22;;
32152;SDS011;18656;50.580;11.392;2022-10-31T03:43:59;9.75;;;6.30;;
32152;SDS011;18656;50.580;11.392;2022-10-31T03:46:28;10.75;;;6.05;;
32152;SDS011;18656;50.580;11.392;2022-10-31T03:48:55;14.60;;;5.90;;
32152;SDS011;18656;50.580;11.392;2022-10-31T03:53:52;12.10;;;6.07;;
32152;SDS011;18656;50.580;11.392;2022-10-31T03:56:40;13.00;;;6.38;;
32152;SDS011;18656;50.580;11.392;2022-10-31T03:59:16;11.23;;;6.75;;
32152;SDS011;18656;50.580;11.392;2022-10-31T04:01:46;15.95;;;7.13;;
32152;SDS011;18656;50.580;11.392;2022-10-31T04:04:14;14.48;;;7.57;;
32152;SDS011;18656;50.580;11.392;2022-10-31T04:06:42;13.63;;;7.50;;
32152;SDS011;18656;50.580;11.392;2022-10-31T04:09:11;11.75;;;6.63;;
32152;SDS011;18656;50.580;11.392;2022-10-31T04:11:45;12.57;;;7.13;;
32152;SDS011;18656;50.580;11.392;2022-10-31T04:14:13;16.23;;;6.47;;
32152;SDS011;18656;50.580;11.392;2022-10-31T04:16:41;11.60;;;7.20;;
32152;SDS011;18656;50.580;11.392;2022-10-31T04:19:10;17.60;;;7.70;;
32152;SDS011;18656;50.580;11.392;2022-10-31T04:21:37;13.75;;;6.90;;
32152;SDS011;18656;50.580;11.392;2022-10-31T04:24:04;13.32;;;6.35;;
32152;SDS011;18656;50.580;11.392;2022-10-31T04:26:32;12.43;;;6.60;;
32152;SDS011;18656;50.580;11.392;2022-10-31T04:28:59;10.00;;;6.03;;
32152;SDS011;18656;50.580;11.392;2022-10-31T04:31:26;12.68;;;6.30;;
32152;SDS011;18656;50.580;11.392;2022-10-31T04:33:53;11.02;;;6.40;;
32152;SDS011;18656;50.580;11.392;2022-10-31T04:36:20;15.25;;;6.70;;
32152;SDS011;18656;50.580;11.392;2022-10-31T04:38:48;19.23;;;7.57;;
32152;SDS011;18656;50.580;11.392;2022-10-31T04:41:15;11.25;;;6.40;;
32152;SDS011;18656;50.580;11.392;2022-10-31T04:43:42;16.13;;;6.97;;
32152;SDS011;18656;50.580;11.392;2022-10-31T04:46:09;10.30;;;6.30;;
32152;SDS011;18656;50.580;11.392;2022-10-31T04:48:36;16.48;;;6.35;;
32152;SDS011;18656;50.580;11.392;2022-10-31T04:51:04;14.95;;;6.75;;
32152;SDS011;18656;50.580;11.392;2022-10-31T04:53:31;15.18;;;7.53;;
32152;SDS011;18656;50.580;11.392;2022-10-31T04:55:58;19.63;;;8.60;;
32152;SDS011;18656;50.580;11.392;2022-10-31T04:58:27;11.75;;;6.82;;
32152;SDS011;18656;50.580;11.392;2022-10-31T05:00:54;14.52;;;6.63;;
32152;SDS011;18656;50.580;11.392;2022-10-31T05:03:22;17.25;;;6.47;;
32152;SDS011;18656;50.580;11.392;2022-10-31T05:05:49;13.63;;;7.00;;
32152;SDS011;18656;50.580;11.392;2022-10-31T05:08:16;11.38;;;6.40;;
32152;SDS011;18656;50.580;11.392;2022-10-31T05:10:44;16.13;;;7.65;;
32152;SDS011;18656;50.580;11.392;2022-10-31T05:13:11;13.55;;;7.20;;
32152;SDS011;18656;50.580;11.392;2022-10-31T05:15:38;18.58;;;8.82;;
32152;SDS011;18656;50.580;11.392;2022-10-31T05:18:06;16.35;;;9.32;;
32152;SDS011;18656;50.580;11.392;2022-10-31T05:20:33;22.42;;;8.70;;
32152;SDS011;18656;50.580;11.392;2022-10-31T05:23:00;15.35;;;7.80;;
32152;SDS011;18656;50.580;11.392;2022-10-31T05:25:27;14.65;;;7.72;;
32152;SDS011;18656;50.580;11.392;2022-10-31T05:27:55;20.65;;;6.88;;
32152;SDS011;18656;50.580;11.392;2022-10-31T05:30:25;15.20;;;7.43;;
32152;SDS011;18656;50.580;11.392;2022-10-31T05:32:52;18.80;;;7.05;;
32152;SDS011;18656;50.580;11.392;2022-10-31T05:35:29;30.02;;;6.05;;
32152;SDS011;18656;50.580;11.392;2022-10-31T05:37:57;19.75;;;7.68;;
32152;SDS011;18656;50.580;11.392;2022-10-31T05:40:25;13.00;;;6.75;;
32152;SDS011;18656;50.580;11.392;2022-10-31T05:42:54;13.57;;;7.95;;
32152;SDS011;18656;50.580;11.392;2022-10-31T05:45:22;15.68;;;7.72;;
32152;SDS011;18656;50.580;11.392;2022-10-31T05:47:53;20.98;;;7.15;;
32152;SDS011;18656;50.580;11.392;2022-10-31T05:50:20;14.30;;;7.13;;
32152;SDS011;18656;50.580;11.392;2022-10-31T05:52:53;15.90;;;6.53;;
32152;SDS011;18656;50.580;11.392;2022-10-31T05:55:21;12.45;;;6.53;;
32152;SDS011;18656;50.580;11.392;2022-10-31T05:57:49;10.57;;;6.30;;
32152;SDS011;18656;50.580;11.392;2022-10-31T06:00:16;13.52;;;5.82;;
32152;SDS011;18656;50.580;11.392;2022-10-31T06:02:43;8.90;;;6.05;;
32152;SDS011;18656;50.580;11.392;2022-10-31T06:05:11;11.85;;;6.30;;
32152;SDS011;18656;50.580;11.392;2022-10-31T06:07:38;16.25;;;7.18;;
32152;SDS011;18656;50.580;11.392;2022-10-31T06:10:06;12.77;;;8.60;;
32152;SDS011;18656;50.580;11.392;2022-10-31T06:12:34;22.88;;;13.02;;
32152;SDS011;18656;50.580;11.392;2022-10-31T06:15:06;15.82;;;9.18;;
32152;SDS011;18656;50.580;11.392;2022-10-31T06:17:34;17.45;;;8.48;;
32152;SDS011;18656;50.580;11.392;2022-10-31T06:20:02;11.15;;;7.75;;
32152;SDS011;18656;50.580;11.392;2022-10-31T06:22:30;18.42;;;8.82;;
32152;SDS011;18656;50.580;11.392;2022-10-31T06:24:57;11.80;;;6.93;;
32152;SDS011;18656;50.580;11.392;2022-10-31T06:27:24;19.63;;;6.95;;
32152;SDS011;18656;50.580;11.392;2022-10-31T06:29:52;14.20;;;6.57;;
32152;SDS011;18656;50.580;11.392;2022-10-31T06:32:19;9.90;;;6.50;;
32152;SDS011;18656;50.580;11.392;2022-10-31T06:34:46;14.32;;;6.80;;
32152;SDS011;18656;50.580;11.392;2022-10-31T06:37:16;13.07;;;7.35;;
32152;SDS011;18656;50.580;11.392;2022-10-31T06:39:43;18.23;;;7.20;;
32152;SDS011;18656;50.580;11.392;2022-10-31T06:42:10;13.55;;;7.15;;
32152;SDS011;18656;50.580;11.392;2022-10-31T06:44:38;13.48;;;6.03;;
32152;SDS011;18656;50.580;11.392;2022-10-31T06:47:05;15.00;;;6.95;;
32152;SDS011;18656;50.580;11.392;2022-10-31T06:49:32;17.75;;;6.97;;
32152;SDS011;18656;50.580;11.392;2022-10-31T06:52:00;16.98;;;7.07;;
32152;SDS011;18656;50.580;11.392;2022-10-31T06:54:27;9.80;;;7.05;;
32152;SDS011;18656;50.580;11.392;2022-10-31T06:56:54;24.73;;;8.23;;
32152;SDS011;18656;50.580;11.392;2022-10-31T06:59:21;29.95;;;9.48;;
32152;SDS011;18656;50.580;11.392;2022-10-31T07:01:50;25.33;;;9.38;;
32152;SDS011;18656;50.580;11.392;2022-10-31T07:04:17;16.15;;;7.93;;
32152;SDS011;18656;50.580;11.392;2022-10-31T07:06:45;18.48;;;8.77;;
32152;SDS011;18656;50.580;11.392;2022-10-31T07:09:17;16.95;;;7.60;;
32152;SDS011;18656;50.580;11.392;2022-10-31T07:11:44;19.83;;;9.57;;
32152;SDS011;18656;50.580;11.392;2022-10-31T07:14:11;11.45;;;7.72;;
32152;SDS011;18656;50.580;11.392;2022-10-31T07:16:38;22.08;;;10.45;;
32152;SDS011;18656;50.580;11.392;2022-10-31T07:19:06;22.10;;;10.43;;
32152;SDS011;18656;50.580;11.392;2022-10-31T07:21:33;16.67;;;9.60;;
32152;SDS011;18656;50.580;11.392;2022-10-31T07:24:00;16.98;;;9.10;;
32152;SDS011;18656;50.580;11.392;2022-10-31T07:26:27;17.00;;;10.45;;
32152;SDS011;18656;50.580;11.392;2022-10-31T07:28:54;15.00;;;9.52;;
32152;SDS011;18656;50.580;11.392;2022-10-31T07:31:22;19.70;;;10.73;;
32152;SDS011;18656;50.580;11.392;2022-10-31T07:33:50;17.67;;;9.60;;
32152;SDS011;18656;50.580;11.392;2022-10-31T07:36:17;14.73;;;8.15;;
32152;SDS011;18656;50.580;11.392;2022-10-31T07:38:44;17.23;;;8.90;;
32152;SDS011;18656;50.580;11.392;2022-10-31T07:41:12;18.55;;;8.82;;
32152;SDS011;18656;50.580;11.392;2022-10-31T07:43:39;20.73;;;10.07;;
32152;SDS011;18656;50.580;11.392;2022-10-31T07:46:06;23.10;;;11.27;;
32152;SDS011;18656;50.580;11.392;2022-10-31T07:48:34;24.67;;;11.13;;
32152;SDS011;18656;50.580;11.392;2022-10-31T07:51:01;19.83;;;10.48;;
32152;SDS011;18656;50.580;11.392;2022-10-31T07:53:28;31.67;;;9.48;;
32152;SDS011;18656;50.580;11.392;2022-10-31T07:55:55;18.70;;;8.95;;
32152;SDS011;18656;50.580;11.392;2022-10-31T07:58:22;22.38;;;9.48;;
32152;SDS011;18656;50.580;11.392;2022-10-31T08:00:51;16.70;;;9.70;;
32152;SDS011;18656;50.580;11.392;2022-10-31T08:03:19;24.45;;;10.68;;
32152;SDS011;18656;50.580;11.392;2022-10-31T08:05:46;22.25;;;10.20;;
32152;SDS011;18656;50.580;11.392;2022-10-31T08:08:13;23.27;;;11.63;;
32152;SDS011;18656;50.580;11.392;2022-10-31T08:10:41;53.60;;;17.85;;
32152;SDS011;18656;50.580;11.392;2022-10-31T08:13:10;36.08;;;17.25;;
32152;SDS011;18656;50.580;11.392;2022-10-31T08:15:37;49.15;;;18.88;;
32152;SDS011;18656;50.580;11.392;2022-10-31T08:18:12;48.58;;;19.52;;
32152;SDS011;18656;50.580;11.392;2022-10-31T08:20:43;28.67;;;14.23;;
32152;SDS011;18656;50.580;11.392;2022-10-31T08:23:11;48.28;;;16.35;;
32152;SDS011;18656;50.580;11.392;2022-10-31T08:25:38;89.05;;;23.52;;
32152;SDS011;18656;50.580;11.392;2022-10-31T08:28:06;101.07;;;22.15;;
32152;SDS011;18656;50.580;11.392;2022-10-31T08:30:34;189.52;;;24.58;;
32152;SDS011;18656;50.580;11.392;2022-10-31T08:35:32;82.60;;;14.63;;
32152;SDS011;18656;50.580;11.392;2022-10-31T08:38:00;40.60;;;10.95;;
32152;SDS011;18656;50.580;11.392;2022-10-31T08:40:28;48.20;;;9.32;;
32152;SDS011;18656;50.580;11.392;2022-10-31T08:42:57;26.70;;;7.28;;
32152;SDS011;18656;50.580;11.392;2022-10-31T08:45:24;26.45;;;6.38;;
32152;SDS011;18656;50.580;11.392;2022-10-31T08:47:51;24.13;;;6.07;;
32152;SDS011;18656;50.580;11.392;2022-10-31T08:50:19;15.32;;;5.43;;
32152;SDS011;18656;50.580;11.392;2022-10-31T08:52:46;24.55;;;6.53;;
32152;SDS011;18656;50.580;11.392;2022-10-31T08:55:29;16.15;;;5.20;;
32152;SDS011;18656;50.580;11.392;2022-10-31T08:57:57;20.50;;;5.82;;
32152;SDS011;18656;50.580;11.392;2022-10-31T09:00:25;19.35;;;5.35;;
32152;SDS011;18656;50.580;11.392;2022-10-31T09:02:57;20.05;;;4.93;;
32152;SDS011;18656;50.580;11.392;2022-10-31T09:05:24;22.95;;;5.18;;
32152;SDS011;18656;50.580;11.392;2022-10-31T09:07:55;19.67;;;4.93;;
32152;SDS011;18656;50.580;11.392;2022-10-31T09:10:24;14.80;;;4.57;;
32152;SDS011;18656;50.580;11.392;2022-10-31T09:12:59;27.10;;;7.60;;
32152;SDS011;18656;50.580;11.392;2022-10-31T09:15:26;18.58;;;4.75;;
32152;SDS011;18656;50.580;11.392;2022-10-31T09:17:54;23.20;;;4.65;;
32152;SDS011;18656;50.580;11.392;2022-10-31T09:20:21;18.63;;;4.78;;
32152;SDS011;18656;50.580;11.392;2022-10-31T09:22:55;19.63;;;5.05;;
32152;SDS011;18656;50.580;11.392;2022-10-31T09:25:23;11.73;;;3.55;;
32152;SDS011;18656;50.580;11.392;2022-10-31T09:27:50;17.33;;;4.70;;
32152;SDS011;18656;50.580;11.392;2022-10-31T09:30:17;18.25;;;4.60;;
32152;SDS011;18656;50.580;11.392;2022-10-31T09:32:45;18.83;;;5.10;;
32152;SDS011;18656;50.580;11.392;2022-10-31T09:35:12;14.75;;;4.68;;
32152;SDS011;18656;50.580;11.392;2022-10-31T09:37:39;18.10;;;5.25;;
32152;SDS011;18656;50.580;11.392;2022-10-31T09:40:07;19.92;;;5.10;;
32152;SDS011;18656;50.580;11.392;2022-10-31T09:42:41;20.02;;;4.70;;
32152;SDS011;18656;50.580;11.392;2022-10-31T09:45:14;19.58;;;4.50;;
32152;SDS011;18656;50.580;11.392;2022-10-31T09:48:06;18.67;;;4.57;;
32152;SDS011;18656;50.580;11.392;2022-10-31T09:56:01;12.75;;;4.32;;
32152;SDS011;18656;50.580;11.392;2022-10-31T09:58:29;10.15;;;3.40;;
32152;SDS011;18656;50.580;11.392;2022-10-31T10:01:01;14.95;;;4.05;;
32152;SDS011;18656;50.580;11.392;2022-10-31T10:03:43;16.60;;;3.90;;
32152;SDS011;18656;50.580;11.392;2022-10-31T10:06:12;15.30;;;5.95;;
32152;SDS011;18656;50.580;11.392;2022-10-31T10:08:41;13.07;;;3.45;;
32152;SDS011;18656;50.580;11.392;2022-10-31T10:11:13;16.77;;;6.50;;
32152;SDS011;18656;50.580;11.392;2022-10-31T10:16:26;12.25;;;3.58;;
32152;SDS011;18656;50.580;11.392;2022-10-31T10:19:21;13.25;;;3.47;;
32152;SDS011;18656;50.580;11.392;2022-10-31T10:24:26;7.20;;;2.95;;
32152;SDS011;18656;50.580;11.392;2022-10-31T10:29:49;9.13;;;3.17;;
32152;SDS011;18656;50.580;11.392;2022-10-31T10:32:19;13.18;;;3.83;;
32152;SDS011;18656;50.580;11.392;2022-10-31T10:34:49;13.48;;;3.80;;
32152;SDS011;18656;50.580;11.392;2022-10-31T10:37:22;8.10;;;3.30;;
32152;SDS011;18656;50.580;11.392;2022-10-31T10:39:53;10.70;;;3.95;;
32152;SDS011;18656;50.580;11.392;2022-10-31T10:42:21;10.07;;;3.50;;
32152;SDS011;18656;50.580;11.392;2022-10-31T10:45:16;18.10;;;3.38;;
32152;SDS011;18656;50.580;11.392;2022-10-31T10:48:07;8.57;;;2.43;;
32152;SDS011;18656;50.580;11.392;2022-10-31T10:50:40;9.95;;;3.22;;
32152;SDS011;18656;50.580;11.392;2022-10-31T10:58:25;11.30;;;2.67;;
32152;SDS011;18656;50.580;11.392;2022-10-31T11:00:53;9.50;;;3.55;;
32152;SDS011;18656;50.580;11.392;2022-10-31T11:03:21;22.38;;;3.33;;
32152;SDS011;18656;50.580;11.392;2022-10-31T11:05:56;17.45;;;3.30;;
32152;SDS011;18656;50.580;11.392;2022-10-31T11:08:28;7.60;;;2.90;;
32152;SDS011;18656;50.580;11.392;2022-10-31T11:10:59;9.82;;;2.40;;
32152;SDS011;18656;50.580;11.392;2022-10-31T11:13:27;9.15;;;2.70;;
32152;SDS011;18656;50.580;11.392;2022-10-31T11:16:00;7.22;;;2.72;;
32152;SDS011;18656;50.580;11.392;2022-10-31T11:18:32;9.43;;;2.60;;
32152;SDS011;18656;50.580;11.392;2022-10-31T11:21:01;10.13;;;3.15;;
32152;SDS011;18656;50.580;11.392;2022-10-31T11:23:30;6.65;;;2.97;;
32152;SDS011;18656;50.580;11.392;2022-10-31T11:28:25;8.32;;;2.90;;
32152;SDS011;18656;50.580;11.392;2022-10-31T11:30:56;9.88;;;2.75;;
32152;SDS011;18656;50.580;11.392;2022-10-31T11:35:52;11.13;;;3.03;;
32152;SDS011;18656;50.580;11.392;2022-10-31T11:38:24;6.88;;;3.00;;
32152;SDS011;18656;50.580;11.392;2022-10-31T11:40:54;5.65;;;2.78;;
32152;SDS011;18656;50.580;11.392;2022-10-31T11:43:21;6.70;;;2.70;;
32152;SDS011;18656;50.580;11.392;2022-10-31T11:45:49;8.15;;;2.75;;
32152;SDS011;18656;50.580;11.392;2022-10-31T11:48:17;7.03;;;3.17;;
32152;SDS011;18656;50.580;11.392;2022-10-31T11:50:50;13.20;;;3.40;;
32152;SDS011;18656;50.580;11.392;2022-10-31T11:53:19;8.90;;;3.22;;
32152;SDS011;18656;50.580;11.392;2022-10-31T11:55:47;11.48;;;3.10;;
32152;SDS011;18656;50.580;11.392;2022-10-31T11:58:19;8.35;;;3.50;;
32152;SDS011;18656;50.580;11.392;2022-10-31T12:00:54;12.07;;;3.20;;
32152;SDS011;18656;50.580;11.392;2022-10-31T12:05:50;11.65;;;3.10;;
32152;SDS011;18656;50.580;11.392;2022-10-31T12:08:18;10.23;;;3.38;;
32152;SDS011;18656;50.580;11.392;2022-10-31T12:10:50;7.57;;;2.97;;
32152;SDS011;18656;50.580;11.392;2022-10-31T12:15:49;8.63;;;3.90;;
32152;SDS011;18656;50.580;11.392;2022-10-31T12:18:28;6.57;;;2.92;;
32152;SDS011;18656;50.580;11.392;2022-10-31T12:26:36;6.45;;;3.33;;
32152;SDS011;18656;50.580;11.392;2022-10-31T12:29:33;9.68;;;4.07;;
32152;SDS011;18656;50.580;11.392;2022-10-31T12:32:02;8.98;;;3.80;;
32152;SDS011;18656;50.580;11.392;2022-10-31T12:37:02;9.35;;;3.00;;
32152;SDS011;18656;50.580;11.392;2022-10-31T12:42:08;10.85;;;4.70;;
32152;SDS011;18656;50.580;11.392;2022-10-31T12:44:53;42.45;;;26.75;;
32152;SDS011;18656;50.580;11.392;2022-10-31T12:47:27;22.60;;;11.27;;
32152;SDS011;18656;50.580;11.392;2022-10-31T12:52:29;207.27;;;78.13;;
32152;SDS011;18656;50.580;11.392;2022-10-31T12:57:46;119.93;;;48.13;;
32152;SDS011;18656;50.580;11.392;2022-10-31T13:00:16;159.93;;;61.95;;
32152;SDS011;18656;50.580;11.392;2022-10-31T13:07:49;15.52;;;6.32;;
32152;SDS011;18656;50.580;11.392;2022-10-31T13:10:21;18.55;;;9.98;;
32152;SDS011;18656;50.580;11.392;2022-10-31T13:12:51;16.23;;;7.00;;
32152;SDS011;18656;50.580;11.392;2022-10-31T13:15:24;21.60;;;9.80;;
32152;SDS011;18656;50.580;11.392;2022-10-31T13:20:25;36.63;;;20.75;;
32152;SDS011;18656;50.580;11.392;2022-10-31T13:22:56;15.20;;;8.25;;
32152;SDS011;18656;50.580;11.392;2022-10-31T13:28:02;23.63;;;12.70;;
32152;SDS011;18656;50.580;11.392;2022-10-31T13:30:31;33.88;;;13.57;;
32152;SDS011;18656;50.580;11.392;2022-10-31T13:33:08;41.33;;;18.50;;
32152;SDS011;18656;50.580;11.392;2022-10-31T13:35:46;24.60;;;11.38;;
32152;SDS011;18656;50.580;11.392;2022-10-31T13:40:57;20.60;;;9.73;;
32152;SDS011;18656;50.580;11.392;2022-10-31T13:45:54;12.93;;;4.60;;
32152;SDS011;18656;50.580;11.392;2022-10-31T13:50:56;14.25;;;6.35;;
32152;SDS011;18656;50.580;11.392;2022-10-31T13:53:35;16.63;;;8.32;;
32152;SDS011;18656;50.580;11.392;2022-10-31T13:56:03;24.75;;;10.48;;
32152;SDS011;18656;50.580;11.392;2022-10-31T13:58:32;17.70;;;7.78;;
32152;SDS011;18656;50.580;11.392;2022-10-31T14:03:30;14.68;;;5.78;;
32152;SDS011;18656;50.580;11.392;2022-10-31T14:06:17;8.68;;;4.03;;
32152;SDS011;18656;50.580;11.392;2022-10-31T14:08:48;8.52;;;4.40;;
32152;SDS011;18656;50.580;11.392;2022-10-31T14:11:23;10.27;;;3.90;;
32152;SDS011;18656;50.580;11.392;2022-10-31T14:13:59;5.13;;;3.05;;
32152;SDS011;18656;50.580;11.392;2022-10-31T14:16:28;5.88;;;3.47;;
32152;SDS011;18656;50.580;11.392;2022-10-31T14:18:58;7.63;;;3.80;;
32152;SDS011;18656;50.580;11.392;2022-10-31T14:21:27;8.27;;;3.40;;
32152;SDS011;18656;50.580;11.392;2022-10-31T14:23:55;13.95;;;3.58;;
32152;SDS011;18656;50.580;11.392;2022-10-31T14:28:55;7.93;;;4.05;;
32152;SDS011;18656;50.580;11.392;2022-10-31T14:34:02;7.80;;;3.55;;
32152;SDS011;18656;50.580;11.392;2022-10-31T14:37:08;9.70;;;4.32;;
32152;SDS011;18656;50.580;11.392;2022-10-31T14:39:29;11.73;;;3.67;;
32152;SDS011;18656;50.580;11.392;2022-10-31T14:47:05;11.70;;;5.05;;
32152;SDS011;18656;50.580;11.392;2022-10-31T14:49:37;10.10;;;4.55;;
32152;SDS011;18656;50.580;11.392;2022-10-31T14:52:07;10.27;;;4.45;;
32152;SDS011;18656;50.580;11.392;2022-10-31T14:54:40;11.63;;;5.20;;
32152;SDS011;18656;50.580;11.392;2022-10-31T14:57:13;14.05;;;5.80;;
32152;SDS011;18656;50.580;11.392;2022-10-31T14:59:43;15.43;;;6.80;;
32152;SDS011;18656;50.580;11.392;2022-10-31T15:02:17;11.95;;;6.20;;
32152;SDS011;18656;50.580;11.392;2022-10-31T15:04:46;11.02;;;6.18;;
32152;SDS011;18656;50.580;11.392;2022-10-31T15:07:15;10.77;;;5.90;;
32152;SDS011;18656;50.580;11.392;2022-10-31T15:09:58;9.38;;;5.57;;
32152;SDS011;18656;50.580;11.392;2022-10-31T15:14:56;10.60;;;5.35;;
32152;SDS011;18656;50.580;11.392;2022-10-31T15:17:25;10.25;;;5.97;;
32152;SDS011;18656;50.580;11.392;2022-10-31T15:19:53;14.13;;;5.90;;
32152;SDS011;18656;50.580;11.392;2022-10-31T15:22:22;12.63;;;6.25;;
32152;SDS011;18656;50.580;11.392;2022-10-31T15:24:50;13.60;;;6.45;;
32152;SDS011;18656;50.580;11.392;2022-10-31T15:27:22;11.45;;;5.40;;
32152;SDS011;18656;50.580;11.392;2022-10-31T15:29:54;12.35;;;4.85;;
32152;SDS011;18656;50.580;11.392;2022-10-31T15:34:50;7.00;;;4.97;;
32152;SDS011;18656;50.580;11.392;2022-10-31T15:37:18;11.10;;;5.28;;
32152;SDS011;18656;50.580;11.392;2022-10-31T15:39:46;8.38;;;5.05;;
32152;SDS011;18656;50.580;11.392;2022-10-31T15:42:33;11.55;;;4.88;;
32152;SDS011;18656;50.580;11.392;2022-10-31T15:45:04;11.80;;;5.88;;
32152;SDS011;18656;50.580;11.392;2022-10-31T15:47:31;9.82;;;5.50;;
32152;SDS011;18656;50.580;11.392;2022-10-31T15:50:00;8.68;;;5.78;;
32152;SDS011;18656;50.580;11.392;2022-10-31T15:52:29;11.88;;;6.15;;
32152;SDS011;18656;50.580;11.392;2022-10-31T15:55:05;7.65;;;5.22;;
32152;SDS011;18656;50.580;11.392;2022-10-31T15:57:46;11.45;;;5.00;;
32152;SDS011;18656;50.580;11.392;2022-10-31T16:00:30;8.48;;;4.93;;
32152;SDS011;18656;50.580;11.392;2022-10-31T16:03:02;11.60;;;5.63;;
32152;SDS011;18656;50.580;11.392;2022-10-31T16:13:35;21.55;;;8.82;;
32152;SDS011;18656;50.580;11.392;2022-10-31T16:16:04;24.13;;;11.07;;
32152;SDS011;18656;50.580;11.392;2022-10-31T16:18:57;21.83;;;12.35;;
32152;SDS011;18656;50.580;11.392;2022-10-31T16:21:33;34.63;;;16.45;;
32152;SDS011;18656;50.580;11.392;2022-10-31T16:24:02;29.35;;;15.43;;
32152;SDS011;18656;50.580;11.392;2022-10-31T16:26:31;27.70;;;16.08;;
32152;SDS011;18656;50.580;11.392;2022-10-31T16:28:59;33.83;;;17.65;;
32152;SDS011;18656;50.580;11.392;2022-10-31T16:31:37;29.98;;;16.67;;
32152;SDS011;18656;50.580;11.392;2022-10-31T16:34:15;22.08;;;12.40;;
32152;SDS011;18656;50.580;11.392;2022-10-31T16:36:47;26.77;;;15.73;;
32152;SDS011;18656;50.580;11.392;2022-10-31T16:39:14;36.67;;;21.52;;
32152;SDS011;18656;50.580;11.392;2022-10-31T16:41:45;27.95;;;18.10;;
32152;SDS011;18656;50.580;11.392;2022-10-31T16:44:17;29.92;;;15.93;;